LOWWEDDB

Guest
Details From LOWW - Wien Schwechat
To EDDB - Berlin Schoenefeld
Flight Number -
Tags generated
Created
Modified
Stats Distance 284 nm / 525 km
Max Altitude 26,100 ft / 7,955 m
Waypoints 7
Social Downloads 0
Likes 0
Share VATSIM

Download

Looking for another format? Having issues loading an existing format? Contact us
Advertisement - Login to hide

Notes

Basic altitude profile: - Ascent Rate: 2500ft/min - Ascent Speed: 250kts - Cruise Altitude: 35000ft - Cruise Speed: 420kts - Descent Rate: 1500ft/min - Descent Speed: 250kts Options: - Use NATs: yes - Use PACOTS: yes - Use low airways: yes - Use high airways: yes

Route

LOWW ASTUT T46 VLM UM725 HDO EDDB

ID Type Via Altitude Latitude Longitude Leg Dist Tot Dist Heading (true) Name
O LOWW APT - 0 ft / 0 m 48.11007˚ 16.56964˚ - 0 nm - Wien Schwechat
ASTUT FIX - 14,800 ft / 4,511 m 48.76351˚ 16.04788˚ 44 nm 44 nm 332° / 332° -
VLM VOR T46 (AWY-LO) 24,500 ft / 7,468 m 49.70427˚ 15.06674˚ 68 nm 112 nm 326° / 325° VLASIM VOR-DME
LUMES FIX UM725 (AWY-HI) 26,100 ft / 7,955 m 50.39275˚ 14.67901˚ 43 nm 156 nm 340° / 340° -
KOMUR FIX UM725 (AWY-HI) 24,800 ft / 7,559 m 50.56235˚ 14.58164˚ 10 nm 167 nm 340° / 340° -
HDO VOR UM725 (AWY-HI) 24,500 ft / 7,468 m 50.92815˚ 14.36880˚ 23 nm 190 nm 340° / 340° HERMSDORF VOR-DME
O EDDB APT - 0 ft / 0 m 52.37854˚ 13.52063˚ 92 nm 283 nm 340° / 340° Berlin Schoenefeld

Altitude Profile

Advertisement - Login to hide

Weather


0- 5 10 15 20 25 30 35+ Temperature / ° C

Clouds and Precipitation
Forecast for 2018-05-23 12:00 UTC. Updated 13 minutes ago

Ground ~20,000 ft ~40,000 ft Winds

LOWW

Details ICAO LOWW (VIE)
Name Wien Schwechat
Region Austria
Timezone Europe/Vienna (UTC+2.0)
Stats Elevation 600 ft / 183 m (AMSL)
Location 48.110068° 16.569637°
Runways 2
Magnetic Variation 4.308° E

METAR

LOWW 231120Z 12010KT 090V160 9999 FEW035 FEW040TCU SCT300 25/16 Q1018 NOSIG

Decode

TAF

TAF LOWW 230815Z 2309/2415 13008KT CAVOK TX26/2314Z TN15/2403Z BECMG 2313/2315 9999 FEW040CB SCT300 TEMPO 2318/2402 VRB10G20KT 3000 TSRA BKN020 SCT030CB FM240200 06004KT 9999 SCT012 BKN020 TEMPO 2402/2407 4000 SHRA BKN012 FEW050CB BECMG 2409/2411 SCT030 FEW030CB TEMPO 2413/2415 5000 TSRA BKN020 SCT030CB

Decode

Departure Runways

ID Width Length Bearing (true) Bearing (mag) Surface Threshold Offset Overrun Length
11 148 ft / 45 m 11,457 ft / 3,492 m 115.99° 111.68° Asphalt 0 ft / 0 m 0 ft / 0 m
16 148 ft / 45 m 11,811 ft / 3,600 m 164.23° 159.92° Asphalt 0 ft / 0 m 33 ft / 10 m
29 148 ft / 45 m 11,457 ft / 3,492 m 296.03° 291.72° Asphalt 0 ft / 0 m 0 ft / 0 m
34 148 ft / 45 m 11,811 ft / 3,600 m 344.24° 339.93° Asphalt 0 ft / 0 m 0 ft / 0 m

EDDB

Details ICAO EDDB (BER)
Name Berlin Schoenefeld
Region Germany - Civil
Timezone Europe/Berlin (UTC+2.0)
Stats Elevation 157 ft / 48 m (AMSL)
Location 52.378541° 13.520629°
Runways 2
Magnetic Variation 3.866° E

METAR

EDDB 231120Z 03011KT 350V080 CAVOK 25/05 Q1021 NOSIG

Decode

TAF

TAF EDDB 230500Z 2306/2406 05007KT CAVOK= TAF EDDC 230500Z 2306/2406 06005KT 9999 SCT040 BECMG 2308/2310 08010KT TEMPO 2310/2318 SHRA SCT030CB PROB30 TEMPO 2310/2318 08015G25KT 3000 TSRA BKN030CB BECMG 2319/2321 08005KT

Decode

Destination Runways

ID Width Length Bearing (true) Bearing (mag) Surface Threshold Offset Overrun Length
07 148 ft / 45 m 9,817 ft / 2,992 m 68.75° 64.88° Asphalt 0 ft / 0 m 984 ft / 300 m
07L 148 ft / 45 m 8,867 ft / 2,703 m 68.77° 64.90° Concrete 0 ft / 0 m 525 ft / 160 m
25 148 ft / 45 m 9,817 ft / 2,992 m 248.78° 244.91° Asphalt 0 ft / 0 m 984 ft / 300 m
25R 148 ft / 45 m 8,867 ft / 2,703 m 248.80° 244.93° Concrete 0 ft / 0 m 984 ft / 300 m

Approach Navaids

Runway Type Ident Frequency Range Bearing (true) Bearing (mag) Slope Elevation
07 Localiser ISSE 110.70 MHz 18 nm / 33 km 68.79° 64.92° - 157 ft / 48 m (AMSL)
07 Glidescope ISSE 110.70 MHz 10 nm / 19 km 68.77° 64.90° 3.00° 157 ft / 48 m (AMSL)
25 Localiser ISSW 109.90 MHz 18 nm / 33 km 248.75° 244.88° - 157 ft / 48 m (AMSL)
25 Glidescope ISSW 109.90 MHz 10 nm / 19 km 248.77° 244.90° 3.00° 157 ft / 48 m (AMSL)

Popular Alternatives